Time;durP1;ratioP1;P1;durP2;ratioP2;P2;SDS_P1;SDS_P2;PMS_P1;PMS_P2;Temp;Humidity;BMP_temperature;BMP_pressure;BME280_temperature;BME280_humidity;BME280_pressure;Samples;Min_cycle;Max_cycle;Signal;HPM_P1;HPM_P2
2022/03/03 00:00:05;;;;;;;13.90;7.72;;;20.40;51.00;;;;;;4947457;28;88767;-85
2022/03/03 00:02:30;;;;;;;12.93;7.97;;;20.40;51.00;;;;;;4948929;28;87578;-85
2022/03/03 00:04:56;;;;;;;13.70;8.43;;;20.30;50.80;;;;;;4949747;28;88093;-86
2022/03/03 00:07:22;;;;;;;12.25;7.60;;;20.30;50.80;;;;;;4948121;28;90307;-84
2022/03/03 00:09:47;;;;;;;12.80;6.97;;;20.30;50.90;;;;;;4952309;28;88292;-85
2022/03/03 00:12:13;;;;;;;11.07;7.25;;;20.30;50.70;;;;;;4952451;28;87531;-85
2022/03/03 00:14:39;;;;;;;9.55;6.93;;;20.30;50.70;;;;;;4951900;28;87603;-85
2022/03/03 00:17:04;;;;;;;13.80;8.07;;;20.30;50.70;;;;;;4950830;28;89293;-85
2022/03/03 00:19:30;;;;;;;10.48;7.35;;;20.30;50.80;;;;;;4950396;28;87781;-86
2022/03/03 00:21:55;;;;;;;11.88;7.13;;;20.30;50.70;;;;;;4952522;28;87312;-85
2022/03/03 00:24:21;;;;;;;13.20;7.00;;;20.30;50.80;;;;;;4952175;28;88417;-85
2022/03/03 00:26:47;;;;;;;11.50;7.50;;;20.20;50.80;;;;;;4952014;28;88403;-85
2022/03/03 00:29:13;;;;;;;12.35;7.63;;;20.30;50.60;;;;;;4950400;28;88005;-85
2022/03/03 00:31:38;;;;;;;10.38;7.03;;;20.20;50.60;;;;;;4951614;28;87336;-86
2022/03/03 00:34:04;;;;;;;11.68;7.30;;;20.20;50.50;;;;;;4949577;28;90677;-85
2022/03/03 00:36:29;;;;;;;10.38;6.95;;;20.20;50.50;;;;;;4950274;28;90101;-85
2022/03/03 00:38:55;;;;;;;12.60;7.28;;;20.20;50.40;;;;;;4950487;28;88321;-85
2022/03/03 00:41:21;;;;;;;11.40;6.85;;;20.20;50.30;;;;;;4949802;28;89516;-84
2022/03/03 00:43:46;;;;;;;9.52;6.80;;;20.20;50.40;;;;;;4949719;28;91403;-85
2022/03/03 00:46:12;;;;;;;12.05;7.20;;;20.20;50.40;;;;;;4952327;28;87918;-85
2022/03/03 00:48:40;;;;;;;12.45;7.28;;;20.20;50.50;;;;;;4952492;28;89197;-85
2022/03/03 00:51:08;;;;;;;13.25;6.70;;;20.20;50.40;;;;;;4950605;28;89383;-85
2022/03/03 00:53:34;;;;;;;11.75;7.50;;;20.20;50.40;;;;;;4952800;28;88948;-86
2022/03/03 00:56:00;;;;;;;9.80;6.78;;;20.20;50.40;;;;;;4951055;28;87725;-84
2022/03/03 00:58:26;;;;;;;10.18;6.72;;;20.20;50.40;;;;;;4949657;28;87438;-84
2022/03/03 01:00:52;;;;;;;11.80;7.20;;;20.10;50.30;;;;;;4951883;28;87435;-85
2022/03/03 01:03:17;;;;;;;11.13;7.07;;;20.10;50.20;;;;;;4951289;28;87991;-86
2022/03/03 01:05:43;;;;;;;9.95;7.45;;;20.10;50.20;;;;;;4949592;28;89907;-85
2022/03/03 01:08:10;;;;;;;10.07;6.88;;;20.10;50.30;;;;;;4951050;28;87878;-85
2022/03/03 01:10:37;;;;;;;10.32;6.85;;;20.10;50.20;;;;;;4948308;28;88856;-85
2022/03/03 01:13:03;;;;;;;9.55;6.35;;;20.10;50.90;;;;;;4950315;28;88528;-84
2022/03/03 01:15:29;;;;;;;12.05;7.43;;;20.10;50.20;;;;;;4948398;28;89404;-85
2022/03/03 01:17:55;;;;;;;10.45;6.95;;;20.10;50.10;;;;;;4949391;28;88565;-86
2022/03/03 01:20:21;;;;;;;9.85;6.75;;;20.10;50.00;;;;;;4948051;28;89233;-84
2022/03/03 01:22:46;;;;;;;9.13;6.55;;;20.10;50.80;;;;;;4950358;28;87527;-85
2022/03/03 01:25:12;;;;;;;9.10;6.15;;;20.10;50.00;;;;;;4949631;28;90337;-84
2022/03/03 01:27:38;;;;;;;10.77;6.70;;;20.10;50.10;;;;;;4951224;28;87394;-85
2022/03/03 01:30:05;;;;;;;9.73;6.75;;;20.10;50.10;;;;;;4949603;28;89301;-84
2022/03/03 01:32:33;;;;;;;12.50;6.95;;;20.00;50.10;;;;;;4949330;28;90646;-85
2022/03/03 01:35:07;;;;;;;11.57;7.75;;;20.00;50.10;;;;;;4949473;28;88419;-85
2022/03/03 01:37:33;;;;;;;11.07;7.10;;;20.00;50.00;;;;;;4950623;28;88228;-84
2022/03/03 01:39:58;;;;;;;10.35;7.45;;;20.00;50.00;;;;;;4950060;28;88488;-86
2022/03/03 01:42:24;;;;;;;11.10;6.50;;;20.00;50.00;;;;;;4951637;28;88092;-85
2022/03/03 01:44:50;;;;;;;10.93;7.03;;;20.00;50.00;;;;;;4951793;28;87409;-84
2022/03/03 01:47:18;;;;;;;8.90;6.15;;;20.00;49.80;;;;;;4949145;28;87555;-84
2022/03/03 01:49:44;;;;;;;9.77;7.13;;;20.00;49.80;;;;;;4950707;28;88121;-85
2022/03/03 01:52:11;;;;;;;8.88;6.40;;;20.00;49.70;;;;;;4951647;28;87883;-85
2022/03/03 01:54:36;;;;;;;11.00;6.68;;;20.00;49.80;;;;;;4951625;28;87057;-85
2022/03/03 01:57:02;;;;;;;7.85;6.18;;;20.00;49.70;;;;;;4951699;28;87990;-85
2022/03/03 01:59:28;;;;;;;9.95;6.43;;;20.00;49.70;;;;;;4951003;28;88315;-84
2022/03/03 02:01:55;;;;;;;8.57;6.25;;;20.00;49.70;;;;;;4948474;28;91499;-85
2022/03/03 02:04:20;;;;;;;8.98;6.40;;;20.00;49.70;;;;;;4948824;28;91034;-84
2022/03/03 02:06:46;;;;;;;9.45;6.50;;;19.90;49.70;;;;;;4948330;28;87306;-85
2022/03/03 02:09:11;;;;;;;9.27;6.78;;;19.90;49.50;;;;;;4949727;28;88194;-86
2022/03/03 02:11:37;;;;;;;8.70;6.22;;;19.90;49.50;;;;;;4949682;28;88539;-85
2022/03/03 02:14:04;;;;;;;10.18;6.40;;;19.90;49.40;;;;;;4948835;28;90289;-84
2022/03/03 02:16:33;;;;;;;9.63;6.35;;;19.90;49.50;;;;;;4951492;28;87845;-85
2022/03/03 02:19:07;;;;;;;9.83;6.53;;;19.90;49.60;;;;;;4949678;28;88396;-85
2022/03/03 02:21:33;;;;;;;9.70;6.60;;;19.90;49.50;;;;;;4949814;28;87831;-85
2022/03/03 02:23:59;;;;;;;9.48;5.82;;;19.90;49.60;;;;;;4948357;28;89208;-85
2022/03/03 02:26:25;;;;;;;9.02;6.43;;;19.90;49.40;;;;;;4949484;28;87864;-86
2022/03/03 02:28:52;;;;;;;9.27;6.20;;;19.90;49.40;;;;;;4948841;28;89415;-85
2022/03/03 02:31:19;;;;;;;7.72;6.28;;;19.90;49.40;;;;;;4949949;28;87779;-86
2022/03/03 02:33:45;;;;;;;8.85;6.47;;;19.80;49.30;;;;;;4951248;28;87904;-85
2022/03/03 02:36:20;;;;;;;9.13;6.38;;;19.90;49.40;;;;;;4950884;28;87291;-85
2022/03/03 02:38:47;;;;;;;8.63;5.82;;;19.80;49.50;;;;;;4950420;28;87511;-85
2022/03/03 02:41:13;;;;;;;8.30;5.97;;;19.80;49.30;;;;;;4950423;28;87802;-85
2022/03/03 02:43:38;;;;;;;8.60;6.32;;;19.80;49.30;;;;;;4949280;28;90430;-86
2022/03/03 02:46:08;;;;;;;8.43;6.28;;;19.80;49.40;;;;;;4949290;28;87116;-86
2022/03/03 02:48:34;;;;;;;;;;;19.80;49.30;;;;;;4951058;28;86982;-86
2022/03/03 02:51:17;;;;;;;9.68;6.53;;;19.80;49.50;;;;;;4950270;28;89072;-86
2022/03/03 02:53:44;;;;;;;7.00;5.97;;;19.80;49.20;;;;;;4948922;28;90976;-85
2022/03/03 02:56:09;;;;;;;8.48;6.13;;;19.80;49.20;;;;;;4950516;28;87405;-85
2022/03/03 02:58:35;;;;;;;9.77;6.15;;;19.80;49.20;;;;;;4949028;28;89678;-85
2022/03/03 03:01:03;;;;;;;7.47;5.60;;;19.80;49.10;;;;;;4951507;28;87281;-85
2022/03/03 03:03:28;;;;;;;7.82;5.88;;;19.80;49.20;;;;;;4948571;28;90340;-85
2022/03/03 03:05:54;;;;;;;8.02;6.05;;;19.70;49.10;;;;;;4949975;28;87465;-86
2022/03/03 03:08:20;;;;;;;8.43;6.18;;;19.70;49.30;;;;;;4949524;28;88650;-85
2022/03/03 03:10:45;;;;;;;7.60;5.95;;;19.70;49.20;;;;;;4950442;28;87724;-85
2022/03/03 03:13:14;;;;;;;8.02;5.88;;;19.70;49.20;;;;;;4951020;28;88002;-85
2022/03/03 03:15:43;;;;;;;8.60;6.10;;;19.70;49.30;;;;;;4949721;28;88806;-85
2022/03/03 03:18:18;;;;;;;8.13;5.82;;;19.70;49.10;;;;;;4950324;28;87776;-86
2022/03/03 03:20:46;;;;;;;8.43;5.97;;;19.70;49.10;;;;;;4949286;28;88087;-85
2022/03/03 03:23:22;;;;;;;7.05;5.60;;;19.80;49.30;;;;;;4949482;28;87308;-86
2022/03/03 03:25:49;;;;;;;7.03;5.55;;;19.70;49.10;;;;;;4947049;28;87021;-86
2022/03/03 03:28:16;;;;;;;7.30;5.90;;;19.70;49.20;;;;;;4949066;28;87569;-86
2022/03/03 03:30:42;;;;;;;7.53;5.72;;;19.70;49.20;;;;;;4949447;28;87651;-86
2022/03/03 03:33:08;;;;;;;7.28;6.05;;;19.70;49.10;;;;;;4948650;28;90298;-85
2022/03/03 03:35:34;;;;;;;7.88;5.95;;;19.70;49.30;;;;;;4948891;28;87477;-85
2022/03/03 03:38:00;;;;;;;7.10;5.78;;;19.70;49.10;;;;;;4949721;28;88459;-85
2022/03/03 03:40:26;;;;;;;6.60;5.57;;;19.60;49.10;;;;;;4949281;28;88737;-85
2022/03/03 03:42:51;;;;;;;8.88;6.15;;;19.60;49.10;;;;;;4949542;28;89199;-86
2022/03/03 03:45:17;;;;;;;7.65;5.93;;;19.70;49.00;;;;;;4951059;28;88588;-86
2022/03/03 03:47:43;;;;;;;7.72;5.93;;;19.60;49.00;;;;;;4950539;28;87002;-86
2022/03/03 03:50:12;;;;;;;7.32;5.32;;;19.60;49.00;;;;;;4952670;28;87953;-85
2022/03/03 03:52:39;;;;;;;8.68;5.82;;;19.60;48.90;;;;;;4952242;28;90473;-86
2022/03/03 03:55:06;;;;;;;6.07;5.07;;;19.60;48.90;;;;;;4951381;28;87177;-85
2022/03/03 03:57:32;;;;;;;7.13;5.53;;;19.60;48.90;;;;;;4952727;28;87667;-86
2022/03/03 04:00:09;;;;;;;9.70;6.47;;;19.60;48.90;;;;;;4952893;28;89626;-85
2022/03/03 04:02:35;;;;;;;7.28;5.40;;;19.60;48.90;;;;;;4951397;28;89418;-86
2022/03/03 04:05:01;;;;;;;8.65;6.47;;;19.50;48.90;;;;;;4950831;28;88970;-87
2022/03/03 04:07:26;;;;;;;7.97;6.18;;;19.60;48.90;;;;;;4952993;28;86800;-86
2022/03/03 04:09:52;;;;;;;9.02;6.30;;;19.50;48.70;;;;;;4951204;28;90367;-85
2022/03/03 04:12:17;;;;;;;8.40;5.97;;;19.50;48.80;;;;;;4951406;28;90028;-85
2022/03/03 04:14:43;;;;;;;7.57;5.82;;;19.50;48.80;;;;;;4950629;28;87976;-84
2022/03/03 04:17:08;;;;;;;7.50;5.70;;;19.50;48.80;;;;;;4952991;28;87345;-86
2022/03/03 04:19:34;;;;;;;8.50;6.00;;;19.50;48.70;;;;;;4950872;28;90486;-84
2022/03/03 04:22:00;;;;;;;6.82;5.53;;;19.50;48.60;;;;;;4953073;28;87450;-85
2022/03/03 04:24:26;;;;;;;7.35;6.20;;;19.60;48.80;;;;;;4951446;28;86911;-85
2022/03/03 04:26:52;;;;;;;7.68;5.80;;;19.50;48.70;;;;;;4952106;28;87709;-85
2022/03/03 04:29:17;;;;;;;8.05;6.03;;;19.50;48.70;;;;;;4950798;28;91037;-83
2022/03/03 04:31:43;;;;;;;6.10;5.50;;;19.50;48.80;;;;;;4950232;28;89052;-85
2022/03/03 04:34:08;;;;;;;7.22;5.63;;;19.50;48.70;;;;;;4950354;28;87889;-85
2022/03/03 04:36:34;;;;;;;6.50;5.43;;;19.50;48.70;;;;;;4950465;28;89760;-84
2022/03/03 04:39:00;;;;;;;8.00;5.72;;;19.50;48.60;;;;;;4952362;28;87713;-85
2022/03/03 04:41:25;;;;;;;7.38;5.70;;;19.50;48.80;;;;;;4951791;28;88793;-84
2022/03/03 04:43:51;;;;;;;7.45;5.68;;;19.50;48.60;;;;;;4950370;28;87910;-85
2022/03/03 04:46:34;;;;;;;6.60;5.63;;;19.40;48.70;;;;;;4951618;28;86865;-85
2022/03/03 04:49:01;;;;;;;7.28;5.55;;;19.40;48.60;;;;;;4950977;28;87873;-85
2022/03/03 04:51:28;;;;;;;9.50;5.68;;;19.40;48.50;;;;;;4950551;28;90430;-85
2022/03/03 04:53:53;;;;;;;6.43;5.50;;;19.40;48.70;;;;;;4952216;28;88615;-85
2022/03/03 04:56:19;;;;;;;8.88;5.72;;;19.40;48.40;;;;;;4951191;28;87463;-85
2022/03/03 04:58:45;;;;;;;6.65;5.43;;;19.40;48.60;;;;;;4951421;28;87451;-85
2022/03/03 05:01:11;;;;;;;7.25;5.80;;;19.40;48.50;;;;;;4950925;28;90503;-84
2022/03/03 05:03:37;;;;;;;7.53;5.50;;;19.40;48.60;;;;;;4952045;28;87471;-85
2022/03/03 05:06:03;;;;;;;7.78;5.85;;;19.40;49.10;;;;;;4952078;28;87606;-85
2022/03/03 05:08:29;;;;;;;7.45;5.75;;;19.40;48.40;;;;;;4950437;28;89146;-85
2022/03/03 05:10:55;;;;;;;6.93;5.32;;;19.40;48.40;;;;;;4950870;28;87689;-85
2022/03/03 05:13:20;;;;;;;7.50;6.30;;;19.40;48.40;;;;;;4950655;28;86891;-85
2022/03/03 05:15:46;;;;;;;6.90;5.22;;;19.40;48.50;;;;;;4951399;28;87001;-85
2022/03/03 05:18:12;;;;;;;6.05;5.22;;;19.40;48.50;;;;;;4951359;28;88225;-84
2022/03/03 05:20:38;;;;;;;6.57;5.45;;;19.40;48.40;;;;;;4950910;28;88416;-85
2022/03/03 05:23:04;;;;;;;7.47;5.55;;;19.40;48.50;;;;;;4949399;28;88401;-84
2022/03/03 05:25:30;;;;;;;8.30;6.45;;;19.40;48.40;;;;;;4949386;28;88985;-84
2022/03/03 05:28:04;;;;;;;7.13;5.57;;;19.40;48.30;;;;;;4951576;28;87954;-85
2022/03/03 05:30:29;;;;;;;6.97;5.40;;;19.40;48.30;;;;;;4941805;28;90491;-85
2022/03/03 05:32:55;;;;;;;6.40;5.15;;;19.40;48.30;;;;;;4949698;28;88367;-85
2022/03/03 05:35:21;;;;;;;6.53;5.53;;;19.30;48.30;;;;;;4949805;28;89420;-85
2022/03/03 05:37:48;;;;;;;5.68;5.07;;;19.40;48.40;;;;;;4949794;28;87934;-85
2022/03/03 05:40:15;;;;;;;10.05;5.63;;;19.30;48.20;;;;;;4950046;28;87816;-86
2022/03/03 05:42:41;;;;;;;6.53;5.45;;;19.30;48.20;;;;;;4950821;28;87963;-86
2022/03/03 05:45:07;;;;;;;6.47;5.22;;;19.30;48.30;;;;;;4949936;28;89501;-85
2022/03/03 05:47:34;;;;;;;6.50;5.70;;;19.30;48.30;;;;;;4951115;28;88004;-84
2022/03/03 05:50:00;;;;;;;5.60;5.00;;;19.30;48.10;;;;;;4949268;28;90576;-85
2022/03/03 05:52:27;;;;;;;5.85;5.00;;;19.30;48.20;;;;;;4950791;28;87020;-85
2022/03/03 05:54:52;;;;;;;6.00;5.05;;;19.30;48.20;;;;;;4949798;28;87854;-85
2022/03/03 05:57:52;;;;;;;6.28;5.18;;;19.30;48.20;;;;;;4949787;28;89072;-85
2022/03/03 06:00:18;;;;;;;6.13;5.30;;;19.30;48.20;;;;;;4937712;28;88345;-85
2022/03/03 06:02:54;;;;;;;6.45;5.47;;;19.20;48.00;;;;;;4950957;28;87747;-85
2022/03/03 06:05:25;;;;;;;7.22;5.43;;;19.20;48.00;;;;;;4949149;28;89628;-85
2022/03/03 06:08:01;;;;;;;7.40;5.97;;;19.20;47.90;;;;;;4946675;28;91690;-85
2022/03/03 06:10:31;;;;;;;6.53;5.18;;;19.20;47.30;;;;;;4950540;28;88870;-85
2022/03/03 06:13:14;;;;;;;5.95;5.15;;;19.20;47.90;;;;;;4951021;28;87615;-85
2022/03/03 06:15:42;;;;;;;6.75;5.43;;;19.20;47.90;;;;;;4948661;28;89928;-85
2022/03/03 06:18:09;;;;;;;8.57;5.78;;;19.30;47.80;;;;;;4947106;28;88853;-85
2022/03/03 06:20:36;;;;;;;8.50;5.53;;;19.30;47.80;;;;;;4948505;28;90356;-85
2022/03/03 06:23:02;;;;;;;6.40;5.40;;;19.30;48.30;;;;;;4949159;28;87755;-86
2022/03/03 06:25:28;;;;;;;5.90;5.13;;;19.30;47.70;;;;;;4949405;28;88036;-86
2022/03/03 06:27:54;;;;;;;8.30;5.57;;;19.30;47.60;;;;;;4949139;28;90596;-84
2022/03/03 06:30:19;;;;;;;6.10;5.47;;;19.30;47.60;;;;;;4950676;28;87956;-86
2022/03/03 06:32:45;;;;;;;6.22;5.10;;;19.30;47.60;;;;;;4949136;28;87955;-85
2022/03/03 06:35:11;;;;;;;8.50;5.63;;;19.30;47.70;;;;;;4949797;28;87748;-85
2022/03/03 06:37:36;;;;;;;6.00;5.13;;;19.30;47.70;;;;;;4950304;28;87381;-85
2022/03/03 06:40:03;;;;;;;6.57;5.28;;;19.30;47.60;;;;;;4948967;28;91246;-85
2022/03/03 06:42:29;;;;;;;10.07;6.60;;;19.30;47.10;;;;;;4949587;28;87452;-85
2022/03/03 06:44:55;;;;;;;7.85;5.68;;;19.30;45.80;;;;;;4950072;28;88012;-85
2022/03/03 06:47:22;;;;;;;6.78;6.07;;;19.30;46.70;;;;;;4949881;28;88093;-85
2022/03/03 06:49:49;;;;;;;6.88;6.13;;;19.30;46.90;;;;;;4949910;28;87496;-85
2022/03/03 06:52:16;;;;;;;14.95;7.07;;;19.30;47.00;;;;;;4949359;28;87038;-84
2022/03/03 06:54:52;;;;;;;28.55;8.68;;;19.30;46.50;;;;;;4950503;28;90079;-84
2022/03/03 06:57:21;;;;;;;40.17;11.70;;;19.30;46.50;;;;;;4947616;28;91907;-83
2022/03/03 06:59:46;;;;;;;53.10;13.77;;;19.30;46.80;;;;;;4949858;28;88479;-85
2022/03/03 07:02:12;;;;;;;46.47;14.88;;;19.30;47.30;;;;;;4949453;28;86954;-84
2022/03/03 07:04:39;;;;;;;37.42;12.48;;;19.40;47.90;;;;;;4950313;28;88042;-86
2022/03/03 07:07:08;;;;;;;49.80;13.38;;;19.40;46.80;;;;;;4946770;28;90482;-84
2022/03/03 07:09:35;;;;;;;44.40;12.77;;;19.40;47.70;;;;;;4949510;28;90289;-84
2022/03/03 07:12:01;;;;;;;50.83;13.82;;;19.50;47.80;;;;;;4949356;28;87554;-84
2022/03/03 07:14:28;;;;;;;38.35;12.10;;;19.60;48.00;;;;;;4948352;28;87722;-86
2022/03/03 07:17:11;;;;;;;47.22;14.55;;;19.70;49.00;;;;;;4949110;28;88603;-85
2022/03/03 07:19:42;;;;;;;40.58;13.27;;;19.80;48.50;;;;;;4952083;28;87825;-85
2022/03/03 07:22:40;;;;;;;30.42;11.85;;;19.80;48.20;;;;;;4948655;28;88067;-84
2022/03/03 07:25:14;;;;;;;44.13;13.32;;;19.90;49.40;;;;;;4951019;28;87791;-83
2022/03/03 07:27:45;;;;;;;42.40;12.85;;;19.90;48.80;;;;;;4952474;28;88839;-84
2022/03/03 07:30:25;;;;;;;30.13;11.45;;;19.90;49.20;;;;;;4949615;28;87736;-84
2022/03/03 07:32:54;;;;;;;36.00;10.55;;;19.90;49.50;;;;;;4944130;28;88338;-83
2022/03/03 07:35:25;;;;;;;30.88;10.80;;;20.00;50.10;;;;;;4944034;28;88423;-83
2022/03/03 07:37:58;;;;;;;29.17;10.98;;;20.10;50.30;;;;;;4948401;28;88805;-82
2022/03/03 07:40:29;;;;;;;34.80;10.63;;;20.10;50.60;;;;;;4948219;28;88865;-84
2022/03/03 07:42:56;;;;;;;30.60;10.85;;;20.10;50.60;;;;;;4950174;28;87941;-84
2022/03/03 07:45:22;;;;;;;38.38;11.60;;;20.10;50.50;;;;;;4948803;28;87665;-83
2022/03/03 07:47:57;;;;;;;30.45;10.80;;;20.10;50.40;;;;;;4906988;28;88692;-84
2022/03/03 07:50:25;;;;;;;34.92;11.07;;;20.10;50.50;;;;;;4939901;28;92202;-84
2022/03/03 07:53:01;;;;;;;32.55;10.63;;;20.10;50.50;;;;;;4949136;28;87800;-85
2022/03/03 07:55:29;;;;;;;37.58;11.77;;;20.20;50.70;;;;;;4948536;28;87277;-85
2022/03/03 07:58:00;;;;;;;32.08;11.50;;;20.20;50.80;;;;;;4947591;28;87915;-86
2022/03/03 08:00:31;;;;;;;31.95;10.63;;;20.20;50.80;;;;;;4947176;28;91298;-86
2022/03/03 08:03:05;;;;;;;27.98;10.52;;;20.20;50.60;;;;;;4965972;28;88039;-84
2022/03/03 08:05:31;;;;;;;31.23;10.98;;;20.20;50.40;;;;;;4948836;28;87124;-85
2022/03/03 08:08:01;;;;;;;28.83;11.70;;;20.20;51.00;;;;;;4949284;28;89569;-86
2022/03/03 08:10:28;;;;;;;33.78;11.13;;;20.20;50.40;;;;;;4946889;28;90629;-86
2022/03/03 08:12:58;;;;;;;34.85;10.88;;;20.20;50.30;;;;;;4949060;28;89069;-85
2022/03/03 08:15:25;;;;;;;29.50;10.85;;;20.20;50.20;;;;;;4945721;28;89412;-85
2022/03/03 08:17:54;;;;;;;32.70;11.63;;;20.20;49.60;;;;;;4946724;28;90532;-83
2022/03/03 08:20:20;;;;;;;;;;;20.20;49.70;;;;;;4947950;28;87820;-85
2022/03/03 08:22:46;;;;;;;34.50;10.88;;;20.20;50.50;;;;;;4948530;28;87365;-85
2022/03/03 08:25:13;;;;;;;29.40;11.98;;;20.30;50.30;;;;;;4946111;28;87870;-84
2022/03/03 08:27:40;;;;;;;31.02;10.63;;;20.20;49.30;;;;;;4948300;28;88163;-84
2022/03/03 08:30:08;;;;;;;26.33;10.45;;;20.20;50.10;;;;;;4945305;28;90273;-85
2022/03/03 08:32:37;;;;;;;26.10;10.02;;;20.30;50.30;;;;;;4950435;28;87257;-83
2022/03/03 08:35:25;;;;;;;35.45;10.85;;;20.30;50.70;;;;;;4949622;28;88067;-84
2022/03/03 08:38:04;;;;;;;27.30;10.65;;;20.30;50.90;;;;;;4949546;28;90455;-83
2022/03/03 08:40:30;;;;;;;;;;;20.30;50.90;;;;;;4950819;28;89102;-83
2022/03/03 08:43:00;;;;;;;27.92;9.45;;;20.30;51.40;;;;;;4953521;28;87909;-84
2022/03/03 08:45:29;;;;;;;;;;;20.30;51.50;;;;;;4950242;28;89586;-82
2022/03/03 08:48:08;;;;;;;20.88;7.65;;;20.30;51.50;;;;;;4951032;28;89178;-84
2022/03/03 08:50:37;;;;;;;30.65;9.93;;;20.30;51.40;;;;;;4948640;28;87811;-84
2022/03/03 08:53:05;;;;;;;35.33;13.60;;;20.30;50.60;;;;;;4966335;28;87878;-84
2022/03/03 08:55:31;;;;;;;31.73;11.95;;;20.30;49.10;;;;;;4948723;28;86957;-83
2022/03/03 08:57:58;;;;;;;26.38;12.23;;;20.30;49.70;;;;;;4948050;28;90467;-84
2022/03/03 09:00:25;;;;;;;33.25;12.02;;;20.30;48.90;;;;;;4949136;28;90115;-83
2022/03/03 09:02:51;;;;;;;25.48;9.70;;;20.30;49.60;;;;;;4948897;28;88977;-85
2022/03/03 09:05:22;;;;;;;25.20;9.50;;;20.40;50.60;;;;;;4952143;28;87904;-85
2022/03/03 09:07:48;;;;;;;26.30;10.70;;;20.30;50.30;;;;;;4949401;28;90223;-85
2022/03/03 09:10:14;;;;;;;26.38;11.13;;;20.30;49.60;;;;;;4950973;28;87730;-85
2022/03/03 09:12:41;;;;;;;31.23;12.35;;;20.30;49.00;;;;;;4950638;28;88000;-85
2022/03/03 09:15:08;;;;;;;25.23;12.02;;;20.40;47.80;;;;;;4946309;28;87880;-85
2022/03/03 09:17:35;;;;;;;23.23;10.35;;;20.30;45.90;;;;;;4949208;28;89883;-85
2022/03/03 09:20:01;;;;;;;27.40;12.15;;;20.40;47.30;;;;;;4948872;28;90840;-84
2022/03/03 09:22:28;;;;;;;22.17;11.55;;;20.40;46.70;;;;;;4947094;28;87877;-85
2022/03/03 09:24:54;;;;;;;26.23;9.68;;;20.40;46.70;;;;;;4948480;28;89399;-84
2022/03/03 09:27:20;;;;;;;25.85;12.05;;;20.40;47.90;;;;;;4948558;28;90159;-84
2022/03/03 09:29:45;;;;;;;29.05;11.35;;;20.40;47.20;;;;;;4949833;28;88819;-84
2022/03/03 09:32:13;;;;;;;20.20;11.00;;;20.40;46.80;;;;;;4950505;28;87227;-84
2022/03/03 09:34:39;;;;;;;21.70;11.27;;;20.40;47.00;;;;;;4948827;28;87907;-85
2022/03/03 09:37:05;;;;;;;32.25;13.85;;;20.40;48.10;;;;;;4946175;28;90649;-84
2022/03/03 09:39:31;;;;;;;30.27;11.20;;;20.40;47.40;;;;;;4948590;28;87871;-84
2022/03/03 09:41:56;;;;;;;38.95;12.32;;;20.40;49.00;;;;;;4947736;28;87164;-84
2022/03/03 09:44:24;;;;;;;32.90;13.40;;;20.40;50.00;;;;;;4946667;28;89198;-84
2022/03/03 09:47:00;;;;;;;;;;;;;;;;;;;;;
2022/03/03 09:49:26;;;;;;;34.78;13.35;;;20.40;50.00;;;;;;4947398;28;90667;-85
2022/03/03 09:51:52;;;;;;;35.70;12.88;;;20.40;50.60;;;;;;4947581;28;89073;-85
2022/03/03 09:54:18;;;;;;;31.65;11.57;;;20.50;52.00;;;;;;4946601;28;89630;-85
2022/03/03 09:56:45;;;;;;;29.38;11.48;;;20.50;52.50;;;;;;4947182;28;90958;-84
2022/03/03 09:59:12;;;;;;;35.05;12.30;;;20.50;52.00;;;;;;4948061;28;87853;-85
2022/03/03 10:01:38;;;;;;;36.63;13.10;;;20.60;52.70;;;;;;4948188;28;87990;-85
2022/03/03 10:04:24;;;;;;;36.97;13.32;;;20.60;51.90;;;;;;4948995;28;88025;-83
2022/03/03 10:06:51;;;;;;;37.28;14.13;;;20.50;50.80;;;;;;4947545;28;90403;-84
2022/03/03 10:09:18;;;;;;;31.10;11.90;;;20.50;50.80;;;;;;4949524;28;87936;-85
2022/03/03 10:12:06;;;;;;;30.98;12.30;;;20.50;51.50;;;;;;4948466;28;87778;-85
2022/03/03 10:14:38;;;;;;;38.60;11.95;;;20.50;51.40;;;;;;4934886;28;89261;-84
2022/03/03 10:17:05;;;;;;;28.98;11.55;;;20.50;51.50;;;;;;4947221;28;90517;-84
2022/03/03 10:19:32;;;;;;;31.48;12.48;;;20.50;51.80;;;;;;4948898;28;88580;-84
2022/03/03 10:21:57;;;;;;;27.42;10.93;;;20.50;51.60;;;;;;4948336;28;87750;-84
2022/03/03 10:24:26;;;;;;;25.15;10.45;;;20.50;51.90;;;;;;4947556;28;87424;-85
2022/03/03 10:27:01;;;;;;;35.07;12.87;;;20.50;50.80;;;;;;4947922;28;88104;-85
2022/03/03 10:29:28;;;;;;;26.17;10.82;;;20.50;50.60;;;;;;4948539;28;87835;-84
2022/03/03 10:31:55;;;;;;;25.92;11.38;;;20.50;51.10;;;;;;4949206;28;87691;-84
2022/03/03 10:34:43;;;;;;;26.25;10.52;;;20.50;51.50;;;;;;4947508;28;89441;-84
2022/03/03 10:37:10;;;;;;;26.92;10.75;;;20.50;51.90;;;;;;4945934;28;90110;-84
2022/03/03 10:39:44;;;;;;;26.15;11.45;;;20.50;51.90;;;;;;4947273;28;88095;-84
2022/03/03 10:42:18;;;;;;;23.17;9.00;;;20.50;52.00;;;;;;4947598;28;88896;-83
2022/03/03 10:44:44;;;;;;;20.27;9.15;;;20.50;52.30;;;;;;4947634;28;89685;-85
2022/03/03 10:47:14;;;;;;;35.80;10.20;;;20.50;52.00;;;;;;4946269;28;88357;-85
2022/03/03 10:49:45;;;;;;;41.03;14.43;;;20.50;50.90;;;;;;4945264;28;87747;-83
2022/03/03 10:52:14;;;;;;;36.97;11.02;;;20.60;50.60;;;;;;4942951;28;88142;-84
2022/03/03 10:55:05;;;;;;;38.17;15.02;;;20.50;51.50;;;;;;4945293;28;87865;-85
2022/03/03 10:57:45;;;;;;;50.30;21.30;;;20.50;51.10;;;;;;4943149;28;88408;-85
2022/03/03 11:00:13;;;;;;;63.75;22.90;;;20.60;50.70;;;;;;4945055;28;87641;-84
2022/03/03 11:02:42;;;;;;;52.83;23.60;;;20.60;50.40;;;;;;4946289;28;87030;-85
2022/03/03 11:05:09;;;;;;;55.10;22.27;;;20.60;50.20;;;;;;4945567;28;88636;-84
2022/03/03 11:07:35;;;;;;;61.50;25.33;;;20.60;50.30;;;;;;4942723;28;91250;-85
2022/03/03 11:10:17;;;;;;;49.88;23.35;;;20.60;50.20;;;;;;4942512;28;91083;-84
2022/03/03 11:12:43;;;;;;;58.10;24.38;;;20.60;50.80;;;;;;4944424;28;87545;-84
2022/03/03 11:15:11;;;;;;;48.50;21.45;;;20.60;51.10;;;;;;4944196;28;87925;-85
2022/03/03 11:17:37;;;;;;;67.68;23.00;;;20.60;51.50;;;;;;4944694;28;88017;-84
2022/03/03 11:20:05;;;;;;;64.85;24.83;;;20.60;51.90;;;;;;4943434;28;90673;-84
2022/03/03 11:22:31;;;;;;;63.42;23.48;;;20.70;52.20;;;;;;4944773;28;87502;-84
2022/03/03 11:24:59;;;;;;;55.83;24.40;;;20.70;52.50;;;;;;4949042;28;87376;-85
2022/03/03 11:27:35;;;;;;;51.15;21.33;;;20.70;51.80;;;;;;4945774;28;89480;-84
2022/03/03 11:30:35;;;;;;;56.22;22.20;;;20.70;51.20;;;;;;4946005;28;88464;-84
2022/03/03 11:33:22;;;;;;;43.78;17.17;;;20.70;49.40;;;;;;4943260;28;88415;-83
2022/03/03 11:36:03;;;;;;;45.05;19.20;;;20.60;49.30;;;;;;4944084;28;87938;-84
2022/03/03 11:38:44;;;;;;;43.63;19.90;;;20.70;50.10;;;;;;4943726;28;91057;-85
2022/03/03 11:41:10;;;;;;;51.60;19.75;;;20.70;50.80;;;;;;4944988;28;87958;-85
2022/03/03 11:43:48;;;;;;;54.50;19.75;;;20.70;51.70;;;;;;4945943;28;88224;-86
2022/03/03 11:46:33;;;;;;;37.25;18.50;;;20.70;51.70;;;;;;4943404;28;88734;-86
2022/03/03 11:49:27;;;;;;;43.65;17.23;;;20.70;51.80;;;;;;4949134;28;90764;-86
2022/03/03 11:52:07;;;;;;;46.40;17.48;;;20.70;52.20;;;;;;4943954;28;90615;-85
2022/03/03 11:54:33;;;;;;;;;;;20.70;51.10;;;;;;4945981;28;88081;-87
2022/03/03 11:57:08;;;;;;;41.45;15.82;;;20.70;52.30;;;;;;4943580;28;89216;-86
2022/03/03 11:59:41;;;;;;;43.78;15.18;;;20.80;52.30;;;;;;4934281;28;92059;-85
2022/03/03 12:02:08;;;;;;;31.20;14.50;;;20.80;53.00;;;;;;4943659;28;88760;-87
2022/03/03 12:04:37;;;;;;;44.72;14.48;;;20.80;52.70;;;;;;4945549;28;87071;-86
2022/03/03 12:07:26;;;;;;;40.00;14.43;;;20.80;52.80;;;;;;4944476;28;89316;-86
2022/03/03 12:09:52;;;;;;;28.65;12.18;;;20.80;54.30;;;;;;4946268;28;90579;-85
2022/03/03 12:12:20;;;;;;;35.35;15.77;;;20.80;53.00;;;;;;4947872;28;87795;-86
2022/03/03 12:15:04;;;;;;;54.88;16.77;;;20.80;52.30;;;;;;4946816;28;87497;-85
2022/03/03 12:18:02;;;;;;;50.58;18.00;;;20.90;53.20;;;;;;4947005;28;89495;-85
2022/03/03 12:20:32;;;;;;;53.70;19.60;;;20.90;53.90;;;;;;4935847;28;87339;-85
2022/03/03 12:23:04;;;;;;;;;;;20.90;53.50;;;;;;4946987;28;89384;-84
2022/03/03 12:25:57;;;;;;;63.65;20.63;;;20.90;53.70;;;;;;4948959;28;88780;-85
2022/03/03 12:28:34;;;;;;;60.03;19.95;;;20.90;54.70;;;;;;4938890;28;89739;-85
2022/03/03 12:31:00;;;;;;;57.05;20.58;;;20.90;55.10;;;;;;4931999;28;89434;-86
2022/03/03 12:33:31;;;;;;;57.83;19.80;;;20.90;55.10;;;;;;4945998;28;90595;-85
2022/03/03 12:36:03;;;;;;;67.60;20.08;;;20.90;56.10;;;;;;4884870;28;87864;-86
2022/03/03 12:38:33;;;;;;;67.90;20.13;;;20.90;56.30;;;;;;4934937;28;89126;-86
2022/03/03 12:40:58;;;;;;;65.15;20.05;;;20.90;56.50;;;;;;4945750;28;90816;-86
2022/03/03 12:43:24;;;;;;;54.70;18.13;;;20.90;57.10;;;;;;4947137;28;90281;-85
2022/03/03 12:45:50;;;;;;;60.60;18.38;;;21.00;57.60;;;;;;4947091;28;87799;-86
2022/03/03 12:48:41;;;;;;;57.97;17.15;;;21.00;57.50;;;;;;4947859;28;89631;-85